<?xml version='1.0' encoding='UTF-8'?><gpx version="1.1" creator="JPX - https://github.com/jenetics/jpx" xmlns="http://www.topografix.com/GPX/1/1"><trk><trkseg><trkpt lat="44.6614917" lon="8.5853767"><ele>332.0</ele><time>2026-04-10T15:08:41.16Z</time></trkpt><trkpt lat="44.6615667" lon="8.5853883"><ele>332.0</ele><time>2026-04-10T15:08:45.16Z</time></trkpt><trkpt lat="44.6616483" lon="8.585375"><ele>332.0</ele><time>2026-04-10T15:09:01.159Z</time></trkpt><trkpt lat="44.6617567" lon="8.5853467"><ele>332.0</ele><time>2026-04-10T15:09:03.16Z</time></trkpt><trkpt lat="44.6618217" lon="8.5853317"><ele>332.0</ele><time>2026-04-10T15:09:04.159Z</time></trkpt><trkpt lat="44.661885" lon="8.5853183"><ele>332.0</ele><time>2026-04-10T15:09:05.16Z</time></trkpt><trkpt lat="44.6619517" lon="8.58531"><ele>329.40000000000003</ele><time>2026-04-10T15:09:06.16Z</time></trkpt><trkpt lat="44.6620167" lon="8.585305"><ele>326.8</ele><time>2026-04-10T15:09:07.159Z</time></trkpt><trkpt lat="44.6620867" lon="8.5853117"><ele>324.2</ele><time>2026-04-10T15:09:08.16Z</time></trkpt><trkpt lat="44.6621517" lon="8.58532"><ele>321.6</ele><time>2026-04-10T15:09:09.16Z</time></trkpt><trkpt lat="44.6622667" lon="8.5853783"><ele>319.0</ele><time>2026-04-10T15:09:11.161Z</time></trkpt><trkpt lat="44.6623667" lon="8.58549"><ele>319.0</ele><time>2026-04-10T15:09:13.16Z</time></trkpt><trkpt lat="44.662405" lon="8.5855633"><ele>319.0</ele><time>2026-04-10T15:09:14.16Z</time></trkpt><trkpt lat="44.6624433" lon="8.5856483"><ele>319.0</ele><time>2026-04-10T15:09:15.162Z</time></trkpt><trkpt lat="44.6624717" lon="8.5857433"><ele>319.0</ele><time>2026-04-10T15:09:16.159Z</time></trkpt><trkpt lat="44.66251" lon="8.5858467"><ele>319.0</ele><time>2026-04-10T15:09:17.159Z</time></trkpt><trkpt lat="44.662535" lon="8.5859583"><ele>319.0</ele><time>2026-04-10T15:09:18.252Z</time></trkpt><trkpt lat="44.6625683" lon="8.5860683"><ele>319.0</ele><time>2026-04-10T15:09:19.159Z</time></trkpt><trkpt lat="44.662595" lon="8.586175"><ele>319.0</ele><time>2026-04-10T15:09:20.16Z</time></trkpt><trkpt lat="44.6626217" lon="8.5862733"><ele>319.0</ele><time>2026-04-10T15:09:21.16Z</time></trkpt><trkpt lat="44.66264" lon="8.5863683"><ele>319.0</ele><time>2026-04-10T15:09:22.16Z</time></trkpt><trkpt lat="44.662655" lon="8.586465"><ele>319.0</ele><time>2026-04-10T15:09:23.159Z</time></trkpt><trkpt lat="44.66267" lon="8.5865583"><ele>319.0</ele><time>2026-04-10T15:09:24.16Z</time></trkpt><trkpt lat="44.662685" lon="8.5866567"><ele>319.0</ele><time>2026-04-10T15:09:25.159Z</time></trkpt><trkpt lat="44.6627" lon="8.5867617"><ele>319.2857142857143</ele><time>2026-04-10T15:09:26.16Z</time></trkpt><trkpt lat="44.662715" lon="8.5868633"><ele>319.57142857142856</ele><time>2026-04-10T15:09:27.161Z</time></trkpt><trkpt lat="44.6627367" lon="8.5869533"><ele>319.85714285714283</ele><time>2026-04-10T15:09:28.16Z</time></trkpt><trkpt lat="44.6627617" lon="8.5870417"><ele>320.1428571428571</ele><time>2026-04-10T15:09:29.16Z</time></trkpt><trkpt lat="44.6627883" lon="8.5871267"><ele>320.42857142857144</ele><time>2026-04-10T15:09:30.16Z</time></trkpt><trkpt lat="44.6628217" lon="8.5872033"><ele>320.71428571428567</ele><time>2026-04-10T15:09:31.16Z</time></trkpt><trkpt lat="44.662865" lon="8.587275"><ele>321.0</ele><time>2026-04-10T15:09:32.16Z</time></trkpt><trkpt lat="44.6629133" lon="8.5873417"><ele>319.3333333333333</ele><time>2026-04-10T15:09:33.16Z</time></trkpt><trkpt lat="44.662965" lon="8.5874083"><ele>317.6666666666667</ele><time>2026-04-10T15:09:34.159Z</time></trkpt><trkpt lat="44.6630233" lon="8.5874667"><ele>316.0</ele><time>2026-04-10T15:09:35.162Z</time></trkpt><trkpt lat="44.6630917" lon="8.5875217"><ele>314.33333333333337</ele><time>2026-04-10T15:09:36.16Z</time></trkpt><trkpt lat="44.6631633" lon="8.58758"><ele>312.6666666666667</ele><time>2026-04-10T15:09:37.161Z</time></trkpt><trkpt lat="44.6632433" lon="8.5876217"><ele>311.0</ele><time>2026-04-10T15:09:38.16Z</time></trkpt><trkpt lat="44.6633317" lon="8.58764"><ele>311.0</ele><time>2026-04-10T15:09:39.162Z</time></trkpt><trkpt lat="44.6634217" lon="8.5876467"><ele>311.0</ele><time>2026-04-10T15:09:40.16Z</time></trkpt><trkpt lat="44.6635133" lon="8.5876517"><ele>311.0</ele><time>2026-04-10T15:09:41.161Z</time></trkpt><trkpt lat="44.6636117" lon="8.5876517"><ele>311.0</ele><time>2026-04-10T15:09:42.16Z</time></trkpt><trkpt lat="44.66371" lon="8.587645"><ele>311.0</ele><time>2026-04-10T15:09:43.16Z</time></trkpt><trkpt lat="44.66381" lon="8.5876217"><ele>312.2</ele><time>2026-04-10T15:09:44.159Z</time></trkpt><trkpt lat="44.6639083" lon="8.587575"><ele>313.40000000000003</ele><time>2026-04-10T15:09:45.159Z</time></trkpt><trkpt lat="44.6640017" lon="8.5875133"><ele>314.6</ele><time>2026-04-10T15:09:46.159Z</time></trkpt><trkpt lat="44.6640917" lon="8.58744"><ele>315.8</ele><time>2026-04-10T15:09:47.16Z</time></trkpt><trkpt lat="44.66418" lon="8.58736"><ele>317.0</ele><time>2026-04-10T15:09:48.16Z</time></trkpt><trkpt lat="44.66427" lon="8.5872783"><ele>317.0</ele><time>2026-04-10T15:09:49.159Z</time></trkpt><trkpt lat="44.6643583" lon="8.5871917"><ele>317.0</ele><time>2026-04-10T15:09:50.16Z</time></trkpt><trkpt lat="44.6644517" lon="8.5871083"><ele>317.0</ele><time>2026-04-10T15:09:51.161Z</time></trkpt><trkpt lat="44.6645417" lon="8.5870133"><ele>317.0</ele><time>2026-04-10T15:09:52.162Z</time></trkpt><trkpt lat="44.664625" lon="8.5869183"><ele>317.0</ele><time>2026-04-10T15:09:53.162Z</time></trkpt><trkpt lat="44.664705" lon="8.5868183"><ele>316.0</ele><time>2026-04-10T15:09:54.161Z</time></trkpt><trkpt lat="44.664785" lon="8.58672"><ele>315.0</ele><time>2026-04-10T15:09:55.16Z</time></trkpt><trkpt lat="44.6648667" lon="8.5866283"><ele>314.0</ele><time>2026-04-10T15:09:56.16Z</time></trkpt><trkpt lat="44.6649517" lon="8.58654"><ele>313.0</ele><time>2026-04-10T15:09:57.16Z</time></trkpt><trkpt lat="44.6650367" lon="8.5864533"><ele>312.0</ele><time>2026-04-10T15:09:58.16Z</time></trkpt><trkpt lat="44.665125" lon="8.586365"><ele>312.0</ele><time>2026-04-10T15:09:59.165Z</time></trkpt><trkpt lat="44.6652133" lon="8.586275"><ele>312.0</ele><time>2026-04-10T15:10:00.162Z</time></trkpt><trkpt lat="44.6653017" lon="8.586185"><ele>312.0</ele><time>2026-04-10T15:10:01.161Z</time></trkpt><trkpt lat="44.6653883" lon="8.5861"><ele>312.0</ele><time>2026-04-10T15:10:02.16Z</time></trkpt><trkpt lat="44.6654717" lon="8.58602"><ele>312.0</ele><time>2026-04-10T15:10:03.161Z</time></trkpt><trkpt lat="44.66555" lon="8.585945"><ele>311.8</ele><time>2026-04-10T15:10:04.159Z</time></trkpt><trkpt lat="44.66563" lon="8.5858917"><ele>311.6</ele><time>2026-04-10T15:10:05.159Z</time></trkpt><trkpt lat="44.6657217" lon="8.5858667"><ele>311.40000000000003</ele><time>2026-04-10T15:10:06.161Z</time></trkpt><trkpt lat="44.6658117" lon="8.58587"><ele>311.2</ele><time>2026-04-10T15:10:07.161Z</time></trkpt><trkpt lat="44.665895" lon="8.5859017"><ele>311.0</ele><time>2026-04-10T15:10:08.162Z</time></trkpt><trkpt lat="44.66598" lon="8.585955"><ele>311.0</ele><time>2026-04-10T15:10:09.16Z</time></trkpt><trkpt lat="44.66606" lon="8.5860117"><ele>311.0</ele><time>2026-04-10T15:10:10.162Z</time></trkpt><trkpt lat="44.6661333" lon="8.5860667"><ele>311.0</ele><time>2026-04-10T15:10:11.159Z</time></trkpt><trkpt lat="44.6662033" lon="8.586115"><ele>311.0</ele><time>2026-04-10T15:10:12.16Z</time></trkpt><trkpt lat="44.66628" lon="8.5861483"><ele>311.0</ele><time>2026-04-10T15:10:13.16Z</time></trkpt><trkpt lat="44.66636" lon="8.5861783"><ele>311.0</ele><time>2026-04-10T15:10:14.16Z</time></trkpt><trkpt lat="44.6664517" lon="8.5861983"><ele>311.40000000000003</ele><time>2026-04-10T15:10:15.16Z</time></trkpt><trkpt lat="44.66655" lon="8.58622"><ele>311.8</ele><time>2026-04-10T15:10:16.16Z</time></trkpt><trkpt lat="44.6666467" lon="8.5862483"><ele>312.20000000000005</ele><time>2026-04-10T15:10:17.161Z</time></trkpt><trkpt lat="44.6667417" lon="8.5862817"><ele>312.6</ele><time>2026-04-10T15:10:18.161Z</time></trkpt><trkpt lat="44.6668417" lon="8.5863133"><ele>313.0</ele><time>2026-04-10T15:10:19.162Z</time></trkpt><trkpt lat="44.6669333" lon="8.5863467"><ele>312.3333333333333</ele><time>2026-04-10T15:10:20.16Z</time></trkpt><trkpt lat="44.6670217" lon="8.5863783"><ele>311.66666666666663</ele><time>2026-04-10T15:10:21.162Z</time></trkpt><trkpt lat="44.6671117" lon="8.5864033"><ele>311.0</ele><time>2026-04-10T15:10:22.161Z</time></trkpt><trkpt lat="44.6672033" lon="8.5864233"><ele>310.3333333333333</ele><time>2026-04-10T15:10:23.161Z</time></trkpt><trkpt lat="44.6672867" lon="8.586435"><ele>309.6666666666667</ele><time>2026-04-10T15:10:24.161Z</time></trkpt><trkpt lat="44.667375" lon="8.586435"><ele>309.0</ele><time>2026-04-10T15:10:25.162Z</time></trkpt><trkpt lat="44.6674633" lon="8.5864217"><ele>309.0</ele><time>2026-04-10T15:10:26.161Z</time></trkpt><trkpt lat="44.6675517" lon="8.5864"><ele>309.0</ele><time>2026-04-10T15:10:27.161Z</time></trkpt><trkpt lat="44.6676467" lon="8.5863633"><ele>309.0</ele><time>2026-04-10T15:10:28.16Z</time></trkpt><trkpt lat="44.66774" lon="8.5863233"><ele>309.0</ele><time>2026-04-10T15:10:29.159Z</time></trkpt><trkpt lat="44.66784" lon="8.5862983"><ele>309.0</ele><time>2026-04-10T15:10:30.159Z</time></trkpt><trkpt lat="44.6679383" lon="8.5862783"><ele>307.0</ele><time>2026-04-10T15:10:31.159Z</time></trkpt><trkpt lat="44.6680317" lon="8.58625"><ele>305.0</ele><time>2026-04-10T15:10:32.161Z</time></trkpt><trkpt lat="44.66812" lon="8.5862167"><ele>303.0</ele><time>2026-04-10T15:10:33.16Z</time></trkpt><trkpt lat="44.6682067" lon="8.5861817"><ele>301.0</ele><time>2026-04-10T15:10:34.16Z</time></trkpt><trkpt lat="44.6682967" lon="8.5861583"><ele>299.0</ele><time>2026-04-10T15:10:35.161Z</time></trkpt><trkpt lat="44.66839" lon="8.5861467"><ele>296.4</ele><time>2026-04-10T15:10:36.159Z</time></trkpt><trkpt lat="44.6684883" lon="8.5861517"><ele>293.79999999999995</ele><time>2026-04-10T15:10:37.159Z</time></trkpt><trkpt lat="44.668585" lon="8.5861517"><ele>291.20000000000005</ele><time>2026-04-10T15:10:38.16Z</time></trkpt><trkpt lat="44.6686817" lon="8.5861367"><ele>288.6</ele><time>2026-04-10T15:10:39.16Z</time></trkpt><trkpt lat="44.6687733" lon="8.586105"><ele>286.0</ele><time>2026-04-10T15:10:40.16Z</time></trkpt><trkpt lat="44.6688517" lon="8.5860517"><ele>284.8</ele><time>2026-04-10T15:10:41.16Z</time></trkpt><trkpt lat="44.6689367" lon="8.5859917"><ele>283.6</ele><time>2026-04-10T15:10:42.16Z</time></trkpt><trkpt lat="44.6690167" lon="8.585925"><ele>282.4</ele><time>2026-04-10T15:10:43.16Z</time></trkpt><trkpt lat="44.6690967" lon="8.5858683"><ele>281.2</ele><time>2026-04-10T15:10:44.16Z</time></trkpt><trkpt lat="44.6691783" lon="8.5858167"><ele>280.0</ele><time>2026-04-10T15:10:45.162Z</time></trkpt><trkpt lat="44.6692617" lon="8.585765"><ele>280.0</ele><time>2026-04-10T15:10:46.16Z</time></trkpt><trkpt lat="44.6693417" lon="8.585715"><ele>280.0</ele><time>2026-04-10T15:10:47.161Z</time></trkpt><trkpt lat="44.6694367" lon="8.5856667"><ele>280.0</ele><time>2026-04-10T15:10:48.159Z</time></trkpt><trkpt lat="44.66953" lon="8.5856183"><ele>280.0</ele><time>2026-04-10T15:10:49.16Z</time></trkpt><trkpt lat="44.669625" lon="8.5855667"><ele>280.0</ele><time>2026-04-10T15:10:50.16Z</time></trkpt><trkpt lat="44.66972" lon="8.5855217"><ele>278.8</ele><time>2026-04-10T15:10:51.162Z</time></trkpt><trkpt lat="44.66982" lon="8.58548"><ele>277.6</ele><time>2026-04-10T15:10:52.16Z</time></trkpt><trkpt lat="44.6699133" lon="8.585435"><ele>276.4</ele><time>2026-04-10T15:10:53.161Z</time></trkpt><trkpt lat="44.67001" lon="8.585395"><ele>275.2</ele><time>2026-04-10T15:10:54.16Z</time></trkpt><trkpt lat="44.6701083" lon="8.5853633"><ele>274.0</ele><time>2026-04-10T15:10:55.16Z</time></trkpt><trkpt lat="44.6702" lon="8.5853283"><ele>272.4</ele><time>2026-04-10T15:10:56.161Z</time></trkpt><trkpt lat="44.67029" lon="8.585295"><ele>270.79999999999995</ele><time>2026-04-10T15:10:57.161Z</time></trkpt><trkpt lat="44.6703817" lon="8.5852667"><ele>269.20000000000005</ele><time>2026-04-10T15:10:58.16Z</time></trkpt><trkpt lat="44.6704767" lon="8.5852367"><ele>267.6</ele><time>2026-04-10T15:10:59.16Z</time></trkpt><trkpt lat="44.6705683" lon="8.585205"><ele>266.0</ele><time>2026-04-10T15:11:00.161Z</time></trkpt><trkpt lat="44.6706583" lon="8.5851783"><ele>266.0</ele><time>2026-04-10T15:11:01.159Z</time></trkpt><trkpt lat="44.6707433" lon="8.58516"><ele>266.0</ele><time>2026-04-10T15:11:02.16Z</time></trkpt><trkpt lat="44.67082" lon="8.585145"><ele>266.0</ele><time>2026-04-10T15:11:03.161Z</time></trkpt><trkpt lat="44.6708967" lon="8.5851283"><ele>266.0</ele><time>2026-04-10T15:11:04.161Z</time></trkpt><trkpt lat="44.6709733" lon="8.5851017"><ele>266.0</ele><time>2026-04-10T15:11:05.161Z</time></trkpt><trkpt lat="44.6710333" lon="8.5850667"><ele>266.0</ele><time>2026-04-10T15:11:06.16Z</time></trkpt><trkpt lat="44.671095" lon="8.5850217"><ele>263.83333333333337</ele><time>2026-04-10T15:11:07.159Z</time></trkpt><trkpt lat="44.67115" lon="8.584955"><ele>261.6666666666667</ele><time>2026-04-10T15:11:08.16Z</time></trkpt><trkpt lat="44.6712033" lon="8.5848783"><ele>259.5</ele><time>2026-04-10T15:11:09.161Z</time></trkpt><trkpt lat="44.6712567" lon="8.5848067"><ele>257.3333333333333</ele><time>2026-04-10T15:11:10.16Z</time></trkpt><trkpt lat="44.67131" lon="8.5847383"><ele>255.16666666666666</ele><time>2026-04-10T15:11:11.159Z</time></trkpt><trkpt lat="44.671365" lon="8.5846733"><ele>253.0</ele><time>2026-04-10T15:11:12.159Z</time></trkpt><trkpt lat="44.6714333" lon="8.5846017"><ele>253.0</ele><time>2026-04-10T15:11:13.16Z</time></trkpt><trkpt lat="44.671505" lon="8.584525"><ele>253.0</ele><time>2026-04-10T15:11:14.161Z</time></trkpt><trkpt lat="44.6715767" lon="8.5844533"><ele>253.0</ele><time>2026-04-10T15:11:15.162Z</time></trkpt><trkpt lat="44.6716567" lon="8.5843817"><ele>253.0</ele><time>2026-04-10T15:11:16.162Z</time></trkpt><trkpt lat="44.67174" lon="8.584305"><ele>253.0</ele><time>2026-04-10T15:11:17.16Z</time></trkpt><trkpt lat="44.67182" lon="8.5842283"><ele>253.60000000000002</ele><time>2026-04-10T15:11:18.162Z</time></trkpt><trkpt lat="44.6719083" lon="8.5841517"><ele>254.20000000000002</ele><time>2026-04-10T15:11:19.161Z</time></trkpt><trkpt lat="44.671985" lon="8.5840783"><ele>254.8</ele><time>2026-04-10T15:11:20.169Z</time></trkpt><trkpt lat="44.6720733" lon="8.5840017"><ele>255.4</ele><time>2026-04-10T15:11:21.16Z</time></trkpt><trkpt lat="44.67216" lon="8.583925"><ele>256.0</ele><time>2026-04-10T15:11:22.16Z</time></trkpt><trkpt lat="44.6722383" lon="8.583855"><ele>254.8</ele><time>2026-04-10T15:11:23.16Z</time></trkpt><trkpt lat="44.67232" lon="8.5837867"><ele>253.60000000000002</ele><time>2026-04-10T15:11:24.16Z</time></trkpt><trkpt lat="44.6724067" lon="8.5837233"><ele>252.4</ele><time>2026-04-10T15:11:25.162Z</time></trkpt><trkpt lat="44.6724917" lon="8.5836633"><ele>251.2</ele><time>2026-04-10T15:11:26.161Z</time></trkpt><trkpt lat="44.6725767" lon="8.58361"><ele>250.0</ele><time>2026-04-10T15:11:27.161Z</time></trkpt><trkpt lat="44.672655" lon="8.5835617"><ele>249.99999999999997</ele><time>2026-04-10T15:11:28.16Z</time></trkpt><trkpt lat="44.6727283" lon="8.5835133"><ele>250.0</ele><time>2026-04-10T15:11:29.159Z</time></trkpt><trkpt lat="44.6727967" lon="8.5834583"><ele>250.0</ele><time>2026-04-10T15:11:30.16Z</time></trkpt><trkpt lat="44.6728617" lon="8.58339"><ele>250.0</ele><time>2026-04-10T15:11:31.159Z</time></trkpt><trkpt lat="44.6729233" lon="8.5833133"><ele>249.99999999999997</ele><time>2026-04-10T15:11:32.16Z</time></trkpt><trkpt lat="44.6729867" lon="8.5832233"><ele>250.0</ele><time>2026-04-10T15:11:33.161Z</time></trkpt><trkpt lat="44.673045" lon="8.5831367"><ele>247.33333333333331</ele><time>2026-04-10T15:11:34.159Z</time></trkpt><trkpt lat="44.673105" lon="8.5830567"><ele>244.66666666666666</ele><time>2026-04-10T15:11:35.159Z</time></trkpt><trkpt lat="44.673175" lon="8.582985"><ele>242.0</ele><time>2026-04-10T15:11:36.16Z</time></trkpt><trkpt lat="44.6732467" lon="8.5829233"><ele>239.33333333333331</ele><time>2026-04-10T15:11:37.16Z</time></trkpt><trkpt lat="44.6733283" lon="8.58287"><ele>236.66666666666666</ele><time>2026-04-10T15:11:38.161Z</time></trkpt><trkpt lat="44.673405" lon="8.5828267"><ele>234.0</ele><time>2026-04-10T15:11:39.161Z</time></trkpt><trkpt lat="44.673475" lon="8.5827883"><ele>233.85714285714286</ele><time>2026-04-10T15:11:40.161Z</time></trkpt><trkpt lat="44.6735367" lon="8.5827567"><ele>233.71428571428572</ele><time>2026-04-10T15:11:41.159Z</time></trkpt><trkpt lat="44.6736067" lon="8.58275"><ele>233.57142857142858</ele><time>2026-04-10T15:11:42.159Z</time></trkpt><trkpt lat="44.6736767" lon="8.582765"><ele>233.42857142857144</ele><time>2026-04-10T15:11:43.159Z</time></trkpt><trkpt lat="44.67374" lon="8.5827983"><ele>233.28571428571428</ele><time>2026-04-10T15:11:44.159Z</time></trkpt><trkpt lat="44.6737983" lon="8.5828567"><ele>233.14285714285717</ele><time>2026-04-10T15:11:45.162Z</time></trkpt><trkpt lat="44.6738417" lon="8.5829333"><ele>233.0</ele><time>2026-04-10T15:11:46.159Z</time></trkpt><trkpt lat="44.6738783" lon="8.5830233"><ele>231.71428571428572</ele><time>2026-04-10T15:11:47.161Z</time></trkpt><trkpt lat="44.6739017" lon="8.58312"><ele>230.42857142857142</ele><time>2026-04-10T15:11:48.159Z</time></trkpt><trkpt lat="44.6739067" lon="8.58322"><ele>229.14285714285714</ele><time>2026-04-10T15:11:49.159Z</time></trkpt><trkpt lat="44.6738883" lon="8.58332"><ele>227.85714285714286</ele><time>2026-04-10T15:11:50.159Z</time></trkpt><trkpt lat="44.6738617" lon="8.5834183"><ele>226.57142857142856</ele><time>2026-04-10T15:11:51.16Z</time></trkpt><trkpt lat="44.673825" lon="8.58352"><ele>225.28571428571428</ele><time>2026-04-10T15:11:52.16Z</time></trkpt><trkpt lat="44.673805" lon="8.5836233"><ele>224.0</ele><time>2026-04-10T15:11:53.161Z</time></trkpt><trkpt lat="44.6738" lon="8.5837267"><ele>223.33333333333334</ele><time>2026-04-10T15:11:54.161Z</time></trkpt><trkpt lat="44.6738117" lon="8.5838183"><ele>222.66666666666669</ele><time>2026-04-10T15:11:55.161Z</time></trkpt><trkpt lat="44.6738317" lon="8.5839033"><ele>222.0</ele><time>2026-04-10T15:11:56.163Z</time></trkpt><trkpt lat="44.6738767" lon="8.5839883"><ele>221.33333333333331</ele><time>2026-04-10T15:11:57.161Z</time></trkpt><trkpt lat="44.67393" lon="8.5840683"><ele>220.66666666666666</ele><time>2026-04-10T15:11:58.16Z</time></trkpt><trkpt lat="44.6740017" lon="8.5841533"><ele>220.0</ele><time>2026-04-10T15:11:59.16Z</time></trkpt><trkpt lat="44.67407" lon="8.5842283"><ele>219.99999999999997</ele><time>2026-04-10T15:12:00.16Z</time></trkpt><trkpt lat="44.6741433" lon="8.5842883"><ele>220.0</ele><time>2026-04-10T15:12:01.16Z</time></trkpt><trkpt lat="44.6742183" lon="8.58433"><ele>220.0</ele><time>2026-04-10T15:12:02.16Z</time></trkpt><trkpt lat="44.6742967" lon="8.5843483"><ele>220.0</ele><time>2026-04-10T15:12:03.161Z</time></trkpt><trkpt lat="44.6743767" lon="8.5843467"><ele>219.99999999999997</ele><time>2026-04-10T15:12:04.16Z</time></trkpt><trkpt lat="44.6744583" lon="8.5843333"><ele>220.0</ele><time>2026-04-10T15:12:05.16Z</time></trkpt><trkpt lat="44.6745433" lon="8.584315"><ele>218.2</ele><time>2026-04-10T15:12:06.16Z</time></trkpt><trkpt lat="44.6746317" lon="8.5843017"><ele>216.4</ele><time>2026-04-10T15:12:07.16Z</time></trkpt><trkpt lat="44.6747183" lon="8.5842883"><ele>214.60000000000002</ele><time>2026-04-10T15:12:08.16Z</time></trkpt><trkpt lat="44.674815" lon="8.584275"><ele>212.8</ele><time>2026-04-10T15:12:09.163Z</time></trkpt><trkpt lat="44.6749133" lon="8.584265"><ele>211.0</ele><time>2026-04-10T15:12:10.16Z</time></trkpt><trkpt lat="44.6750133" lon="8.5842483"><ele>211.0</ele><time>2026-04-10T15:12:11.16Z</time></trkpt><trkpt lat="44.6751117" lon="8.5842267"><ele>211.0</ele><time>2026-04-10T15:12:12.162Z</time></trkpt><trkpt lat="44.67521" lon="8.584195"><ele>211.0</ele><time>2026-04-10T15:12:13.16Z</time></trkpt><trkpt lat="44.6753083" lon="8.5841583"><ele>211.0</ele><time>2026-04-10T15:12:14.16Z</time></trkpt><trkpt lat="44.675405" lon="8.5841233"><ele>211.0</ele><time>2026-04-10T15:12:15.161Z</time></trkpt><trkpt lat="44.6755017" lon="8.5840883"><ele>211.4</ele><time>2026-04-10T15:12:16.159Z</time></trkpt><trkpt lat="44.6755983" lon="8.5840533"><ele>211.8</ele><time>2026-04-10T15:12:17.16Z</time></trkpt><trkpt lat="44.6756833" lon="8.58402"><ele>212.20000000000002</ele><time>2026-04-10T15:12:18.161Z</time></trkpt><trkpt lat="44.6757683" lon="8.583985"><ele>212.60000000000002</ele><time>2026-04-10T15:12:19.159Z</time></trkpt><trkpt lat="44.675855" lon="8.5839517"><ele>213.0</ele><time>2026-04-10T15:12:20.159Z</time></trkpt><trkpt lat="44.675935" lon="8.5839183"><ele>212.99999999999997</ele><time>2026-04-10T15:12:21.161Z</time></trkpt><trkpt lat="44.676005" lon="8.583885"><ele>213.0</ele><time>2026-04-10T15:12:22.159Z</time></trkpt><trkpt lat="44.6760667" lon="8.5838367"><ele>213.0</ele><time>2026-04-10T15:12:23.16Z</time></trkpt><trkpt lat="44.676125" lon="8.583775"><ele>213.0</ele><time>2026-04-10T15:12:24.16Z</time></trkpt><trkpt lat="44.6761767" lon="8.5836967"><ele>213.0</ele><time>2026-04-10T15:12:25.161Z</time></trkpt><trkpt lat="44.676225" lon="8.5836133"><ele>212.99999999999997</ele><time>2026-04-10T15:12:26.161Z</time></trkpt><trkpt lat="44.676265" lon="8.5835367"><ele>213.0</ele><time>2026-04-10T15:12:27.16Z</time></trkpt><trkpt lat="44.6763267" lon="8.5834117"><ele>213.0</ele><time>2026-04-10T15:12:29.161Z</time></trkpt><trkpt lat="44.6764067" lon="8.5833617"><ele>213.0</ele><time>2026-04-10T15:12:31.159Z</time></trkpt><trkpt lat="44.67648" lon="8.583445"><ele>213.0</ele><time>2026-04-10T15:12:33.161Z</time></trkpt><trkpt lat="44.6765017" lon="8.5835317"><ele>213.0</ele><time>2026-04-10T15:12:34.161Z</time></trkpt><trkpt lat="44.67653" lon="8.5836533"><ele>213.0</ele><time>2026-04-10T15:12:35.16Z</time></trkpt><trkpt lat="44.676565" lon="8.5837617"><ele>213.0</ele><time>2026-04-10T15:12:36.16Z</time></trkpt><trkpt lat="44.6765967" lon="8.58387"><ele>213.66666666666666</ele><time>2026-04-10T15:12:37.161Z</time></trkpt><trkpt lat="44.6766283" lon="8.5839817"><ele>214.33333333333331</ele><time>2026-04-10T15:12:38.161Z</time></trkpt><trkpt lat="44.67667" lon="8.5840817"><ele>215.0</ele><time>2026-04-10T15:12:39.16Z</time></trkpt><trkpt lat="44.676715" lon="8.5841617"><ele>215.66666666666666</ele><time>2026-04-10T15:12:40.16Z</time></trkpt><trkpt lat="44.6767683" lon="8.58421"><ele>216.33333333333331</ele><time>2026-04-10T15:12:41.16Z</time></trkpt><trkpt lat="44.6768283" lon="8.5842617"><ele>217.0</ele><time>2026-04-10T15:12:42.161Z</time></trkpt><trkpt lat="44.6768933" lon="8.5843217"><ele>218.16666666666666</ele><time>2026-04-10T15:12:43.16Z</time></trkpt><trkpt lat="44.6769517" lon="8.5844017"><ele>219.33333333333331</ele><time>2026-04-10T15:12:44.159Z</time></trkpt><trkpt lat="44.6770017" lon="8.5844967"><ele>220.5</ele><time>2026-04-10T15:12:45.16Z</time></trkpt><trkpt lat="44.67705" lon="8.584595"><ele>221.66666666666669</ele><time>2026-04-10T15:12:46.16Z</time></trkpt><trkpt lat="44.6770933" lon="8.5846933"><ele>222.83333333333334</ele><time>2026-04-10T15:12:47.161Z</time></trkpt><trkpt lat="44.6771283" lon="8.5847683"><ele>224.0</ele><time>2026-04-10T15:12:48.16Z</time></trkpt><trkpt lat="44.6772183" lon="8.5848683"><ele>224.0</ele><time>2026-04-10T15:12:50.16Z</time></trkpt><trkpt lat="44.6773517" lon="8.5848833"><ele>223.99999999999997</ele><time>2026-04-10T15:12:52.159Z</time></trkpt><trkpt lat="44.6774383" lon="8.5848617"><ele>223.99999999999997</ele><time>2026-04-10T15:12:53.16Z</time></trkpt><trkpt lat="44.6775333" lon="8.58483"><ele>224.0</ele><time>2026-04-10T15:12:54.16Z</time></trkpt><trkpt lat="44.6776383" lon="8.5847983"><ele>224.0</ele><time>2026-04-10T15:12:55.159Z</time></trkpt><trkpt lat="44.6777483" lon="8.5847667"><ele>226.79999999999998</ele><time>2026-04-10T15:12:56.16Z</time></trkpt><trkpt lat="44.6778517" lon="8.584725"><ele>229.59999999999997</ele><time>2026-04-10T15:12:57.161Z</time></trkpt><trkpt lat="44.6779567" lon="8.5846767"><ele>232.4</ele><time>2026-04-10T15:12:58.161Z</time></trkpt><trkpt lat="44.6780517" lon="8.58462"><ele>235.2</ele><time>2026-04-10T15:12:59.16Z</time></trkpt><trkpt lat="44.6781383" lon="8.58457"><ele>238.0</ele><time>2026-04-10T15:13:00.161Z</time></trkpt><trkpt lat="44.678225" lon="8.584545"><ele>237.99999999999997</ele><time>2026-04-10T15:13:01.161Z</time></trkpt><trkpt lat="44.6782983" lon="8.58457"><ele>238.0</ele><time>2026-04-10T15:13:02.161Z</time></trkpt><trkpt lat="44.6783633" lon="8.5846183"><ele>238.0</ele><time>2026-04-10T15:13:03.161Z</time></trkpt><trkpt lat="44.67841" lon="8.5846967"><ele>238.0</ele><time>2026-04-10T15:13:04.16Z</time></trkpt><trkpt lat="44.6784483" lon="8.5848183"><ele>237.99999999999997</ele><time>2026-04-10T15:13:05.161Z</time></trkpt><trkpt lat="44.6784733" lon="8.5849867"><ele>238.0</ele><time>2026-04-10T15:13:06.161Z</time></trkpt><trkpt lat="44.6785017" lon="8.5851367"><ele>238.0</ele><time>2026-04-10T15:13:07.163Z</time></trkpt><trkpt lat="44.6785317" lon="8.5852933"><ele>238.0</ele><time>2026-04-10T15:13:08.16Z</time></trkpt><trkpt lat="44.6785667" lon="8.5854433"><ele>238.0</ele><time>2026-04-10T15:13:09.161Z</time></trkpt><trkpt lat="44.6786117" lon="8.5855883"><ele>238.0</ele><time>2026-04-10T15:13:10.16Z</time></trkpt><trkpt lat="44.67866" lon="8.5857333"><ele>243.60000000000002</ele><time>2026-04-10T15:13:11.16Z</time></trkpt><trkpt lat="44.6787117" lon="8.58587"><ele>249.20000000000002</ele><time>2026-04-10T15:13:12.16Z</time></trkpt><trkpt lat="44.6787633" lon="8.586005"><ele>254.8</ele><time>2026-04-10T15:13:13.16Z</time></trkpt><trkpt lat="44.678815" lon="8.5861333"><ele>260.40000000000003</ele><time>2026-04-10T15:13:14.164Z</time></trkpt><trkpt lat="44.6788683" lon="8.5862633"><ele>266.0</ele><time>2026-04-10T15:13:15.159Z</time></trkpt><trkpt lat="44.678925" lon="8.5863917"><ele>268.2</ele><time>2026-04-10T15:13:16.16Z</time></trkpt><trkpt lat="44.6789767" lon="8.5865217"><ele>270.40000000000003</ele><time>2026-04-10T15:13:17.16Z</time></trkpt><trkpt lat="44.6790267" lon="8.5866633"><ele>272.6</ele><time>2026-04-10T15:13:18.161Z</time></trkpt><trkpt lat="44.6790717" lon="8.5868067"><ele>274.8</ele><time>2026-04-10T15:13:19.159Z</time></trkpt><trkpt lat="44.6791167" lon="8.58695"><ele>277.0</ele><time>2026-04-10T15:13:20.162Z</time></trkpt><trkpt lat="44.6791617" lon="8.5870883"><ele>278.2</ele><time>2026-04-10T15:13:21.161Z</time></trkpt><trkpt lat="44.6792117" lon="8.58722"><ele>279.4</ele><time>2026-04-10T15:13:22.161Z</time></trkpt><trkpt lat="44.6792667" lon="8.5873433"><ele>280.6</ele><time>2026-04-10T15:13:23.163Z</time></trkpt><trkpt lat="44.6793283" lon="8.5874617"><ele>281.8</ele><time>2026-04-10T15:13:24.163Z</time></trkpt><trkpt lat="44.6793883" lon="8.587575"><ele>283.0</ele><time>2026-04-10T15:13:25.161Z</time></trkpt><trkpt lat="44.679445" lon="8.5876733"><ele>283.0</ele><time>2026-04-10T15:13:26.16Z</time></trkpt><trkpt lat="44.6794967" lon="8.58776"><ele>283.0</ele><time>2026-04-10T15:13:27.163Z</time></trkpt><trkpt lat="44.6795683" lon="8.5878817"><ele>283.0</ele><time>2026-04-10T15:13:29.159Z</time></trkpt><trkpt lat="44.6796133" lon="8.5879633"><ele>283.0</ele><time>2026-04-10T15:13:32.16Z</time></trkpt><trkpt lat="44.6796917" lon="8.58798"><ele>283.0</ele><time>2026-04-10T15:13:51.162Z</time></trkpt><trkpt lat="44.6797983" lon="8.5879433"><ele>283.0</ele><time>2026-04-10T15:13:53.16Z</time></trkpt><trkpt lat="44.6799333" lon="8.58792"><ele>283.0</ele><time>2026-04-10T15:13:55.16Z</time></trkpt><trkpt lat="44.6800083" lon="8.5879117"><ele>283.0</ele><time>2026-04-10T15:13:56.16Z</time></trkpt><trkpt lat="44.6800833" lon="8.5879033"><ele>283.0</ele><time>2026-04-10T15:13:57.16Z</time></trkpt><trkpt lat="44.6801633" lon="8.5878983"><ele>283.0</ele><time>2026-04-10T15:13:58.16Z</time></trkpt><trkpt lat="44.6802517" lon="8.58789"><ele>286.4</ele><time>2026-04-10T15:13:59.16Z</time></trkpt><trkpt lat="44.6803417" lon="8.5878783"><ele>289.8</ele><time>2026-04-10T15:14:00.162Z</time></trkpt><trkpt lat="44.6804333" lon="8.5878667"><ele>293.2</ele><time>2026-04-10T15:14:01.16Z</time></trkpt><trkpt lat="44.6805267" lon="8.5878517"><ele>296.6</ele><time>2026-04-10T15:14:02.162Z</time></trkpt><trkpt lat="44.6806167" lon="8.5878283"><ele>300.0</ele><time>2026-04-10T15:14:03.161Z</time></trkpt><trkpt lat="44.6807067" lon="8.5878067"><ele>300.0</ele><time>2026-04-10T15:14:04.159Z</time></trkpt><trkpt lat="44.6807917" lon="8.5877717"><ele>300.0</ele><time>2026-04-10T15:14:05.159Z</time></trkpt><trkpt lat="44.6808717" lon="8.587735"><ele>300.0</ele><time>2026-04-10T15:14:06.159Z</time></trkpt><trkpt lat="44.6809433" lon="8.58771"><ele>300.0</ele><time>2026-04-10T15:14:07.159Z</time></trkpt><trkpt lat="44.681035" lon="8.587755"><ele>300.0</ele><time>2026-04-10T15:14:09.161Z</time></trkpt><trkpt lat="44.681075" lon="8.58791"><ele>300.0</ele><time>2026-04-10T15:14:11.159Z</time></trkpt><trkpt lat="44.6810817" lon="8.588015"><ele>300.0</ele><time>2026-04-10T15:14:12.161Z</time></trkpt><trkpt lat="44.6810883" lon="8.5881233"><ele>300.0</ele><time>2026-04-10T15:14:13.158Z</time></trkpt><trkpt lat="44.6811017" lon="8.588225"><ele>300.0</ele><time>2026-04-10T15:14:14.159Z</time></trkpt><trkpt lat="44.6811217" lon="8.5883183"><ele>300.0</ele><time>2026-04-10T15:14:15.159Z</time></trkpt><trkpt lat="44.6811533" lon="8.588395"><ele>300.0</ele><time>2026-04-10T15:14:16.158Z</time></trkpt><trkpt lat="44.68125" lon="8.5884967"><ele>302.2857142857143</ele><time>2026-04-10T15:14:18.158Z</time></trkpt><trkpt lat="44.6813117" lon="8.5885283"><ele>304.57142857142856</ele><time>2026-04-10T15:14:19.158Z</time></trkpt><trkpt lat="44.6813783" lon="8.5885517"><ele>306.8571428571429</ele><time>2026-04-10T15:14:20.159Z</time></trkpt><trkpt lat="44.6814417" lon="8.58857"><ele>309.1428571428571</ele><time>2026-04-10T15:14:21.159Z</time></trkpt><trkpt lat="44.6815033" lon="8.58859"><ele>311.42857142857144</ele><time>2026-04-10T15:14:22.159Z</time></trkpt><trkpt lat="44.681565" lon="8.588615"><ele>313.7142857142857</ele><time>2026-04-10T15:14:23.159Z</time></trkpt><trkpt lat="44.68163" lon="8.5887033"><ele>316.0</ele><time>2026-04-10T15:14:25.161Z</time></trkpt><trkpt lat="44.68164" lon="8.5887933"><ele>316.0</ele><time>2026-04-10T15:14:27.161Z</time></trkpt><trkpt lat="44.6816467" lon="8.58891"><ele>316.0</ele><time>2026-04-10T15:15:09.159Z</time></trkpt><trkpt lat="44.6816633" lon="8.5888217"><ele>316.0</ele><time>2026-04-10T15:15:16.159Z</time></trkpt><trkpt lat="44.6816433" lon="8.5887317"><ele>316.0</ele><time>2026-04-10T15:15:18.164Z</time></trkpt><trkpt lat="44.681685" lon="8.58866"><ele>316.0</ele><time>2026-04-10T15:15:20.162Z</time></trkpt><trkpt lat="44.6817717" lon="8.5886683"><ele>316.0</ele><time>2026-04-10T15:15:22.158Z</time></trkpt><trkpt lat="44.6818433" lon="8.5887417"><ele>316.0</ele><time>2026-04-10T15:15:24.164Z</time></trkpt><trkpt lat="44.68191" lon="8.5887333"><ele>316.0</ele><time>2026-04-10T15:15:27.159Z</time></trkpt><trkpt lat="44.6819217" lon="8.588645"><ele>316.0</ele><time>2026-04-10T15:15:29.159Z</time></trkpt><trkpt lat="44.6819233" lon="8.58852"><ele>316.0</ele><time>2026-04-10T15:15:31.159Z</time></trkpt><trkpt lat="44.6819767" lon="8.5884417"><ele>316.0</ele><time>2026-04-10T15:15:34.158Z</time></trkpt><trkpt lat="44.6819417" lon="8.5883417"><ele>316.0</ele><time>2026-04-10T15:15:57.16Z</time></trkpt><trkpt lat="44.6818983" lon="8.5882167"><ele>317.6</ele><time>2026-04-10T15:15:59.159Z</time></trkpt><trkpt lat="44.681855" lon="8.588075"><ele>319.20000000000005</ele><time>2026-04-10T15:16:01.159Z</time></trkpt><trkpt lat="44.6818483" lon="8.5879417"><ele>320.79999999999995</ele><time>2026-04-10T15:16:03.159Z</time></trkpt><trkpt lat="44.6818467" lon="8.587815"><ele>322.4</ele><time>2026-04-10T15:16:05.158Z</time></trkpt><trkpt lat="44.6818433" lon="8.5876917"><ele>324.0</ele><time>2026-04-10T15:16:07.159Z</time></trkpt><trkpt lat="44.6818233" lon="8.5875267"><ele>325.0</ele><time>2026-04-10T15:16:09.159Z</time></trkpt><trkpt lat="44.6817983" lon="8.587445"><ele>326.0</ele><time>2026-04-10T15:16:10.158Z</time></trkpt><trkpt lat="44.6817667" lon="8.5873617"><ele>327.0</ele><time>2026-04-10T15:16:11.159Z</time></trkpt><trkpt lat="44.68173" lon="8.5872867"><ele>328.0</ele><time>2026-04-10T15:16:12.16Z</time></trkpt><trkpt lat="44.6816717" lon="8.5871567"><ele>329.0</ele><time>2026-04-10T15:16:14.161Z</time></trkpt><trkpt lat="44.6815933" lon="8.587025"><ele>330.0</ele><time>2026-04-10T15:16:16.158Z</time></trkpt><trkpt lat="44.6815517" lon="8.5869567"><ele>331.5</ele><time>2026-04-10T15:16:17.16Z</time></trkpt><trkpt lat="44.681505" lon="8.5868933"><ele>333.0</ele><time>2026-04-10T15:16:18.159Z</time></trkpt><trkpt lat="44.6814167" lon="8.5867783"><ele>334.5</ele><time>2026-04-10T15:16:20.16Z</time></trkpt><trkpt lat="44.681345" lon="8.5867017"><ele>336.0</ele><time>2026-04-10T15:16:22.161Z</time></trkpt><trkpt lat="44.6813" lon="8.5866033"><ele>337.5</ele><time>2026-04-10T15:16:25.16Z</time></trkpt><trkpt lat="44.6812783" lon="8.586495"><ele>339.0</ele><time>2026-04-10T15:16:27.16Z</time></trkpt><trkpt lat="44.68129" lon="8.586385"><ele>339.0</ele><time>2026-04-10T15:16:29.158Z</time></trkpt><trkpt lat="44.6813383" lon="8.5862517"><ele>339.0</ele><time>2026-04-10T15:16:31.158Z</time></trkpt><trkpt lat="44.6813733" lon="8.5861733"><ele>339.0</ele><time>2026-04-10T15:16:32.158Z</time></trkpt><trkpt lat="44.6814083" lon="8.5860967"><ele>339.0</ele><time>2026-04-10T15:16:33.159Z</time></trkpt><trkpt lat="44.6814433" lon="8.5860183"><ele>339.0</ele><time>2026-04-10T15:16:34.159Z</time></trkpt><trkpt lat="44.6814833" lon="8.5859417"><ele>339.0</ele><time>2026-04-10T15:16:35.158Z</time></trkpt><trkpt lat="44.681525" lon="8.5858683"><ele>339.0</ele><time>2026-04-10T15:16:36.16Z</time></trkpt><trkpt lat="44.6815667" lon="8.5857967"><ele>337.7142857142857</ele><time>2026-04-10T15:16:37.162Z</time></trkpt><trkpt lat="44.6816133" lon="8.5857233"><ele>336.42857142857144</ele><time>2026-04-10T15:16:38.159Z</time></trkpt><trkpt lat="44.68166" lon="8.585655"><ele>335.14285714285717</ele><time>2026-04-10T15:16:39.16Z</time></trkpt><trkpt lat="44.6817117" lon="8.5855917"><ele>333.8571428571429</ele><time>2026-04-10T15:16:40.159Z</time></trkpt><trkpt lat="44.6817583" lon="8.5855233"><ele>332.57142857142856</ele><time>2026-04-10T15:16:41.159Z</time></trkpt><trkpt lat="44.6818" lon="8.5854467"><ele>331.28571428571433</ele><time>2026-04-10T15:16:42.159Z</time></trkpt><trkpt lat="44.681835" lon="8.5853667"><ele>330.0</ele><time>2026-04-10T15:16:43.16Z</time></trkpt><trkpt lat="44.681865" lon="8.5852867"><ele>325.8333333333333</ele><time>2026-04-10T15:16:44.159Z</time></trkpt><trkpt lat="44.6819183" lon="8.585125"><ele>321.6666666666667</ele><time>2026-04-10T15:16:46.159Z</time></trkpt><trkpt lat="44.68195" lon="8.5850367"><ele>317.5</ele><time>2026-04-10T15:16:47.161Z</time></trkpt><trkpt lat="44.68198" lon="8.58495"><ele>313.33333333333337</ele><time>2026-04-10T15:16:48.158Z</time></trkpt><trkpt lat="44.6820017" lon="8.584855"><ele>309.1666666666667</ele><time>2026-04-10T15:16:49.158Z</time></trkpt><trkpt lat="44.6820117" lon="8.58476"><ele>305.0</ele><time>2026-04-10T15:16:50.159Z</time></trkpt><trkpt lat="44.6820033" lon="8.5846667"><ele>304.4</ele><time>2026-04-10T15:16:51.16Z</time></trkpt><trkpt lat="44.6819833" lon="8.58458"><ele>303.8</ele><time>2026-04-10T15:16:52.159Z</time></trkpt><trkpt lat="44.6819617" lon="8.5844967"><ele>303.2</ele><time>2026-04-10T15:16:53.16Z</time></trkpt><trkpt lat="44.68194" lon="8.584335"><ele>302.6</ele><time>2026-04-10T15:16:55.16Z</time></trkpt><trkpt lat="44.68194" lon="8.584165"><ele>302.0</ele><time>2026-04-10T15:16:57.16Z</time></trkpt><trkpt lat="44.68195" lon="8.5839983"><ele>298.0</ele><time>2026-04-10T15:16:59.163Z</time></trkpt><trkpt lat="44.6819667" lon="8.58383"><ele>294.0</ele><time>2026-04-10T15:17:01.162Z</time></trkpt><trkpt lat="44.6819817" lon="8.5836633"><ele>290.0</ele><time>2026-04-10T15:17:03.16Z</time></trkpt><trkpt lat="44.6820067" lon="8.583495"><ele>286.0</ele><time>2026-04-10T15:17:05.161Z</time></trkpt><trkpt lat="44.68204" lon="8.5833283"><ele>286.0</ele><time>2026-04-10T15:17:07.159Z</time></trkpt><trkpt lat="44.6820617" lon="8.5832433"><ele>286.0</ele><time>2026-04-10T15:17:08.159Z</time></trkpt><trkpt lat="44.6821317" lon="8.5831167"><ele>286.0</ele><time>2026-04-10T15:17:10.159Z</time></trkpt><trkpt lat="44.6822217" lon="8.5830183"><ele>286.0</ele><time>2026-04-10T15:17:12.159Z</time></trkpt><trkpt lat="44.6823167" lon="8.5829467"><ele>286.0</ele><time>2026-04-10T15:17:14.158Z</time></trkpt><trkpt lat="44.68238" lon="8.58292"><ele>285.99999999999994</ele><time>2026-04-10T15:17:15.16Z</time></trkpt><trkpt lat="44.6824533" lon="8.5829017"><ele>286.0</ele><time>2026-04-10T15:17:16.159Z</time></trkpt><trkpt lat="44.682525" lon="8.5828817"><ele>286.0</ele><time>2026-04-10T15:17:17.16Z</time></trkpt><trkpt lat="44.6825917" lon="8.582865"><ele>286.0</ele><time>2026-04-10T15:17:18.159Z</time></trkpt><trkpt lat="44.6826583" lon="8.5828467"><ele>286.0</ele><time>2026-04-10T15:17:19.16Z</time></trkpt><trkpt lat="44.6827267" lon="8.5828267"><ele>285.99999999999994</ele><time>2026-04-10T15:17:20.159Z</time></trkpt><trkpt lat="44.6827917" lon="8.582815"><ele>286.0</ele><time>2026-04-10T15:17:21.159Z</time></trkpt><trkpt lat="44.68286" lon="8.5828067"><ele>283.99999999999994</ele><time>2026-04-10T15:17:22.158Z</time></trkpt><trkpt lat="44.6829283" lon="8.5828017"><ele>282.0</ele><time>2026-04-10T15:17:23.159Z</time></trkpt><trkpt lat="44.6829983" lon="8.5827983"><ele>280.0</ele><time>2026-04-10T15:17:24.16Z</time></trkpt><trkpt lat="44.6830667" lon="8.5827933"><ele>278.0</ele><time>2026-04-10T15:17:25.16Z</time></trkpt><trkpt lat="44.68313" lon="8.58279"><ele>276.0</ele><time>2026-04-10T15:17:26.161Z</time></trkpt><trkpt lat="44.6831933" lon="8.5828"><ele>273.99999999999994</ele><time>2026-04-10T15:17:27.16Z</time></trkpt><trkpt lat="44.6832567" lon="8.5828217"><ele>272.0</ele><time>2026-04-10T15:17:28.159Z</time></trkpt><trkpt lat="44.6833233" lon="8.5828517"><ele>271.71428571428567</ele><time>2026-04-10T15:17:29.16Z</time></trkpt><trkpt lat="44.6833883" lon="8.5828817"><ele>271.42857142857144</ele><time>2026-04-10T15:17:30.16Z</time></trkpt><trkpt lat="44.68346" lon="8.5829067"><ele>271.1428571428571</ele><time>2026-04-10T15:17:31.161Z</time></trkpt><trkpt lat="44.6835317" lon="8.5829283"><ele>270.85714285714283</ele><time>2026-04-10T15:17:32.159Z</time></trkpt><trkpt lat="44.683605" lon="8.5829433"><ele>270.57142857142856</ele><time>2026-04-10T15:17:33.158Z</time></trkpt><trkpt lat="44.6836767" lon="8.5829467"><ele>270.2857142857143</ele><time>2026-04-10T15:17:34.158Z</time></trkpt><trkpt lat="44.683745" lon="8.5829433"><ele>270.0</ele><time>2026-04-10T15:17:35.16Z</time></trkpt><trkpt lat="44.683815" lon="8.5829383"><ele>268.5</ele><time>2026-04-10T15:17:36.158Z</time></trkpt><trkpt lat="44.6838833" lon="8.5829333"><ele>267.0</ele><time>2026-04-10T15:17:37.159Z</time></trkpt><trkpt lat="44.6839483" lon="8.5829267"><ele>265.5</ele><time>2026-04-10T15:17:38.16Z</time></trkpt><trkpt lat="44.6840133" lon="8.5829133"><ele>264.0</ele><time>2026-04-10T15:17:39.16Z</time></trkpt><trkpt lat="44.6841333" lon="8.5829083"><ele>262.5</ele><time>2026-04-10T15:17:41.164Z</time></trkpt><trkpt lat="44.6841967" lon="8.5829067"><ele>261.0</ele><time>2026-04-10T15:17:42.158Z</time></trkpt><trkpt lat="44.684325" lon="8.5829033"><ele>261.0</ele><time>2026-04-10T15:17:44.159Z</time></trkpt><trkpt lat="44.684395" lon="8.5829017"><ele>261.0</ele><time>2026-04-10T15:17:45.16Z</time></trkpt><trkpt lat="44.684465" lon="8.5828917"><ele>261.0</ele><time>2026-04-10T15:17:46.159Z</time></trkpt><trkpt lat="44.6845283" lon="8.5828733"><ele>261.0</ele><time>2026-04-10T15:17:47.159Z</time></trkpt><trkpt lat="44.684595" lon="8.5828517"><ele>261.0</ele><time>2026-04-10T15:17:48.16Z</time></trkpt><trkpt lat="44.684655" lon="8.5828217"><ele>261.0</ele><time>2026-04-10T15:17:49.159Z</time></trkpt><trkpt lat="44.6847217" lon="8.5827833"><ele>261.0</ele><time>2026-04-10T15:17:50.161Z</time></trkpt><trkpt lat="44.6847783" lon="8.582735"><ele>261.8571428571429</ele><time>2026-04-10T15:17:51.161Z</time></trkpt><trkpt lat="44.6848383" lon="8.582675"><ele>262.7142857142857</ele><time>2026-04-10T15:17:52.161Z</time></trkpt><trkpt lat="44.6848983" lon="8.5826133"><ele>263.57142857142856</ele><time>2026-04-10T15:17:53.16Z</time></trkpt><trkpt lat="44.6849617" lon="8.5825517"><ele>264.42857142857144</ele><time>2026-04-10T15:17:54.16Z</time></trkpt><trkpt lat="44.6850233" lon="8.5824883"><ele>265.2857142857143</ele><time>2026-04-10T15:17:55.158Z</time></trkpt><trkpt lat="44.6850733" lon="8.5824233"><ele>266.14285714285717</ele><time>2026-04-10T15:17:56.161Z</time></trkpt><trkpt lat="44.6851267" lon="8.582365"><ele>267.0</ele><time>2026-04-10T15:17:57.162Z</time></trkpt><trkpt lat="44.6851817" lon="8.5823033"><ele>267.0</ele><time>2026-04-10T15:17:58.158Z</time></trkpt><trkpt lat="44.68524" lon="8.5821817"><ele>267.0</ele><time>2026-04-10T15:18:00.162Z</time></trkpt><trkpt lat="44.6852367" lon="8.5820417"><ele>267.0</ele><time>2026-04-10T15:18:02.16Z</time></trkpt><trkpt lat="44.6851683" lon="8.58191"><ele>267.0</ele><time>2026-04-10T15:18:04.159Z</time></trkpt><trkpt lat="44.685105" lon="8.5818367"><ele>267.0</ele><time>2026-04-10T15:18:05.16Z</time></trkpt><trkpt lat="44.6850467" lon="8.5817767"><ele>265.6666666666667</ele><time>2026-04-10T15:18:06.158Z</time></trkpt><trkpt lat="44.68497" lon="8.5817167"><ele>264.3333333333333</ele><time>2026-04-10T15:18:07.159Z</time></trkpt><trkpt lat="44.684905" lon="8.581665"><ele>263.0</ele><time>2026-04-10T15:18:08.159Z</time></trkpt><trkpt lat="44.6848417" lon="8.5816217"><ele>261.66666666666663</ele><time>2026-04-10T15:18:09.159Z</time></trkpt><trkpt lat="44.6847167" lon="8.58157"><ele>260.3333333333333</ele><time>2026-04-10T15:18:11.159Z</time></trkpt><trkpt lat="44.68465" lon="8.5815533"><ele>259.0</ele><time>2026-04-10T15:18:12.16Z</time></trkpt><trkpt lat="44.684585" lon="8.5815417"><ele>259.0</ele><time>2026-04-10T15:18:13.16Z</time></trkpt><trkpt lat="44.684465" lon="8.5815183"><ele>259.0</ele><time>2026-04-10T15:18:15.161Z</time></trkpt><trkpt lat="44.6844" lon="8.5814967"><ele>259.0</ele><time>2026-04-10T15:18:16.158Z</time></trkpt><trkpt lat="44.6843333" lon="8.5814733"><ele>259.0</ele><time>2026-04-10T15:18:17.16Z</time></trkpt><trkpt lat="44.684215" lon="8.5814433"><ele>259.0</ele><time>2026-04-10T15:18:19.158Z</time></trkpt><trkpt lat="44.6841033" lon="8.5814283"><ele>259.5</ele><time>2026-04-10T15:18:21.159Z</time></trkpt><trkpt lat="44.6840133" lon="8.5814217"><ele>260.0</ele><time>2026-04-10T15:18:23.159Z</time></trkpt><trkpt lat="44.683935" lon="8.581425"><ele>260.5</ele><time>2026-04-10T15:18:25.161Z</time></trkpt><trkpt lat="44.6838567" lon="8.5814317"><ele>261.0</ele><time>2026-04-10T15:18:27.159Z</time></trkpt><trkpt lat="44.68377" lon="8.5814433"><ele>261.5</ele><time>2026-04-10T15:18:29.159Z</time></trkpt><trkpt lat="44.6836867" lon="8.5814417"><ele>262.0</ele><time>2026-04-10T15:18:31.159Z</time></trkpt><trkpt lat="44.683595" lon="8.581445"><ele>260.4</ele><time>2026-04-10T15:18:33.16Z</time></trkpt><trkpt lat="44.6834983" lon="8.5814467"><ele>258.79999999999995</ele><time>2026-04-10T15:18:35.158Z</time></trkpt><trkpt lat="44.6833983" lon="8.5814617"><ele>257.2</ele><time>2026-04-10T15:18:37.159Z</time></trkpt><trkpt lat="44.683305" lon="8.5814667"><ele>255.6</ele><time>2026-04-10T15:18:39.159Z</time></trkpt><trkpt lat="44.6832183" lon="8.58146"><ele>254.0</ele><time>2026-04-10T15:18:41.159Z</time></trkpt><trkpt lat="44.683145" lon="8.581445"><ele>254.0</ele><time>2026-04-10T15:18:43.159Z</time></trkpt><trkpt lat="44.6830567" lon="8.5814267"><ele>253.99999999999997</ele><time>2026-04-10T15:18:58.158Z</time></trkpt><trkpt lat="44.682975" lon="8.581365"><ele>253.99999999999997</ele><time>2026-04-10T15:19:00.159Z</time></trkpt><trkpt lat="44.6828733" lon="8.5812933"><ele>254.0</ele><time>2026-04-10T15:19:02.159Z</time></trkpt><trkpt lat="44.682775" lon="8.5812233"><ele>254.0</ele><time>2026-04-10T15:19:04.158Z</time></trkpt><trkpt lat="44.6827017" lon="8.5811317"><ele>250.83333333333334</ele><time>2026-04-10T15:19:06.159Z</time></trkpt><trkpt lat="44.6827017" lon="8.581015"><ele>247.66666666666669</ele><time>2026-04-10T15:19:08.159Z</time></trkpt><trkpt lat="44.68276" lon="8.5809367"><ele>244.5</ele><time>2026-04-10T15:19:10.158Z</time></trkpt><trkpt lat="44.68283" lon="8.5808883"><ele>241.33333333333331</ele><time>2026-04-10T15:19:12.16Z</time></trkpt><trkpt lat="44.682905" lon="8.5808567"><ele>238.16666666666666</ele><time>2026-04-10T15:19:14.163Z</time></trkpt><trkpt lat="44.682985" lon="8.5808167"><ele>235.0</ele><time>2026-04-10T15:19:16.16Z</time></trkpt><trkpt lat="44.6830783" lon="8.5807433"><ele>233.8</ele><time>2026-04-10T15:19:18.158Z</time></trkpt><trkpt lat="44.68318" lon="8.58066"><ele>232.6</ele><time>2026-04-10T15:19:20.159Z</time></trkpt><trkpt lat="44.6832883" lon="8.58061"><ele>231.39999999999998</ele><time>2026-04-10T15:19:22.16Z</time></trkpt><trkpt lat="44.683405" lon="8.5806067"><ele>230.2</ele><time>2026-04-10T15:19:24.159Z</time></trkpt><trkpt lat="44.6835033" lon="8.580615"><ele>229.0</ele><time>2026-04-10T15:19:26.158Z</time></trkpt><trkpt lat="44.6835867" lon="8.5805867"><ele>230.6</ele><time>2026-04-10T15:19:28.159Z</time></trkpt><trkpt lat="44.6836883" lon="8.5805217"><ele>232.2</ele><time>2026-04-10T15:19:30.159Z</time></trkpt><trkpt lat="44.68378" lon="8.58044"><ele>233.79999999999998</ele><time>2026-04-10T15:19:32.159Z</time></trkpt><trkpt lat="44.6838817" lon="8.5803483"><ele>235.39999999999998</ele><time>2026-04-10T15:19:34.158Z</time></trkpt><trkpt lat="44.6839667" lon="8.5802633"><ele>237.0</ele><time>2026-04-10T15:19:36.158Z</time></trkpt><trkpt lat="44.68404" lon="8.5801767"><ele>233.28571428571425</ele><time>2026-04-10T15:19:38.158Z</time></trkpt><trkpt lat="44.684065" lon="8.580075"><ele>229.57142857142856</ele><time>2026-04-10T15:19:41.158Z</time></trkpt><trkpt lat="44.684035" lon="8.579995"><ele>225.85714285714283</ele><time>2026-04-10T15:19:44.158Z</time></trkpt><trkpt lat="44.6839917" lon="8.57991"><ele>222.1428571428571</ele><time>2026-04-10T15:19:46.159Z</time></trkpt><trkpt lat="44.6839467" lon="8.579835"><ele>218.42857142857144</ele><time>2026-04-10T15:19:48.158Z</time></trkpt><trkpt lat="44.6839133" lon="8.57974"><ele>214.71428571428572</ele><time>2026-04-10T15:19:50.159Z</time></trkpt><trkpt lat="44.6838983" lon="8.579635"><ele>211.0</ele><time>2026-04-10T15:19:52.158Z</time></trkpt><trkpt lat="44.68389" lon="8.5795267"><ele>207.99999999999997</ele><time>2026-04-10T15:19:54.159Z</time></trkpt><trkpt lat="44.6838783" lon="8.57943"><ele>205.0</ele><time>2026-04-10T15:19:56.159Z</time></trkpt><trkpt lat="44.683855" lon="8.5793283"><ele>202.0</ele><time>2026-04-10T15:19:58.158Z</time></trkpt><trkpt lat="44.6838483" lon="8.57923"><ele>199.0</ele><time>2026-04-10T15:20:00.159Z</time></trkpt><trkpt lat="44.6838783" lon="8.5791417"><ele>195.99999999999997</ele><time>2026-04-10T15:20:02.158Z</time></trkpt><trkpt lat="44.6839517" lon="8.57913"><ele>193.0</ele><time>2026-04-10T15:20:04.159Z</time></trkpt><trkpt lat="44.684055" lon="8.5791483"><ele>192.99999999999997</ele><time>2026-04-10T15:20:06.159Z</time></trkpt><trkpt lat="44.684155" lon="8.57915"><ele>193.0</ele><time>2026-04-10T15:20:08.159Z</time></trkpt><trkpt lat="44.6842483" lon="8.57914"><ele>193.0</ele><time>2026-04-10T15:20:10.161Z</time></trkpt><trkpt lat="44.6843183" lon="8.5791233"><ele>193.0</ele><time>2026-04-10T15:20:12.16Z</time></trkpt><trkpt lat="44.684355" lon="8.5790033"><ele>192.99999999999997</ele><time>2026-04-10T15:20:15.16Z</time></trkpt><trkpt lat="44.6843483" lon="8.578875"><ele>193.0</ele><time>2026-04-10T15:20:17.16Z</time></trkpt><trkpt lat="44.6843333" lon="8.5787517"><ele>192.66666666666666</ele><time>2026-04-10T15:20:19.16Z</time></trkpt><trkpt lat="44.6843467" lon="8.5786367"><ele>192.33333333333331</ele><time>2026-04-10T15:20:21.159Z</time></trkpt><trkpt lat="44.68437" lon="8.5785383"><ele>192.0</ele><time>2026-04-10T15:20:23.16Z</time></trkpt><trkpt lat="44.6843917" lon="8.5784467"><ele>191.66666666666666</ele><time>2026-04-10T15:20:26.159Z</time></trkpt><trkpt lat="44.68441" lon="8.578355"><ele>191.33333333333331</ele><time>2026-04-10T15:20:29.158Z</time></trkpt><trkpt lat="44.6844617" lon="8.5782683"><ele>191.0</ele><time>2026-04-10T15:20:32.159Z</time></trkpt><trkpt lat="44.6845383" lon="8.5782417"><ele>192.20000000000002</ele><time>2026-04-10T15:20:34.159Z</time></trkpt><trkpt lat="44.6846517" lon="8.578235"><ele>193.4</ele><time>2026-04-10T15:20:36.16Z</time></trkpt><trkpt lat="44.6847583" lon="8.5782417"><ele>194.6</ele><time>2026-04-10T15:20:38.16Z</time></trkpt><trkpt lat="44.6848467" lon="8.5782833"><ele>195.8</ele><time>2026-04-10T15:20:40.16Z</time></trkpt><trkpt lat="44.6849183" lon="8.5783517"><ele>197.0</ele><time>2026-04-10T15:20:42.159Z</time></trkpt><trkpt lat="44.6849817" lon="8.5784283"><ele>197.0</ele><time>2026-04-10T15:20:44.161Z</time></trkpt><trkpt lat="44.6850583" lon="8.5785033"><ele>197.0</ele><time>2026-04-10T15:20:46.16Z</time></trkpt><trkpt lat="44.6851167" lon="8.5785667"><ele>197.0</ele><time>2026-04-10T15:20:48.16Z</time></trkpt></trkseg></trk></gpx>